createdAt,value
2022-09-13T00:01:35.317Z,100122.19
2022-09-13T00:04:02.726Z,100125.53
2022-09-13T00:06:29.671Z,100121.75
2022-09-13T00:08:56.617Z,100123.56
2022-09-13T00:11:27.825Z,100121.09
2022-09-13T00:13:56.301Z,100114.28
2022-09-13T00:16:27.784Z,100113.31
2022-09-13T00:18:55.573Z,100116.78
2022-09-13T00:21:24.560Z,100113.19
2022-09-13T00:23:54.296Z,100110.50
2022-09-13T00:26:27.907Z,100113.78
2022-09-13T00:28:57.978Z,100121.72
2022-09-13T00:31:28.045Z,100112.88
2022-09-13T00:33:56.137Z,100116.63
2022-09-13T00:36:23.135Z,100119.00
2022-09-13T00:38:50.040Z,100110.16
2022-09-13T00:41:19.993Z,100104.09
2022-09-13T00:43:59.522Z,100106.63
2022-09-13T00:46:49.052Z,100113.56
2022-09-13T00:49:36.875Z,100114.09
2022-09-13T00:52:10.251Z,100109.25
2022-09-13T00:54:46.079Z,100119.59
2022-09-13T00:57:15.863Z,100118.72
2022-09-13T01:00:13.869Z,100114.22
2022-09-13T01:02:48.689Z,100115.09
2022-09-13T01:05:20.683Z,100114.66
2022-09-13T01:07:47.875Z,100119.75
2022-09-13T01:10:15.052Z,100114.91
2022-09-13T01:13:05.425Z,100112.66
2022-09-13T01:15:32.319Z,100109.09
2022-09-13T01:17:59.429Z,100112.53
2022-09-13T01:21:04.453Z,100117.69
2022-09-13T01:24:02.429Z,100102.53
2022-09-13T01:27:15.126Z,100105.88
2022-09-13T01:30:05.405Z,100105.19
2022-09-13T01:33:29.895Z,100103.81
2022-09-13T01:36:18.882Z,100100.47
2022-09-13T01:39:04.947Z,100100.19
2022-09-13T01:42:03.346Z,100104.84
2022-09-13T01:44:56.713Z,100097.06
2022-09-13T01:47:34.009Z,100099.94
2022-09-13T01:50:26.747Z,100096.97
2022-09-13T01:53:25.805Z,100097.00
2022-09-13T01:56:18.612Z,100092.72
2022-09-13T01:58:59.436Z,100090.69
2022-09-13T02:01:38.631Z,100088.78
2022-09-13T02:04:17.115Z,100088.56
2022-09-13T02:06:58.117Z,100086.25
2022-09-13T02:09:28.627Z,100085.78
2022-09-13T02:12:03.801Z,100079.16
2022-09-13T02:14:44.332Z,100083.00
2022-09-13T02:17:20.158Z,100079.44
2022-09-13T02:19:58.750Z,100086.47
2022-09-13T02:22:37.666Z,100075.13
2022-09-13T02:25:14.578Z,100072.34
2022-09-13T02:27:48.407Z,100076.13
2022-09-13T02:30:16.185Z,100068.75
2022-09-13T02:33:01.249Z,100071.44
2022-09-13T02:35:51.122Z,100073.94
2022-09-13T02:38:59.841Z,100051.41
2022-09-13T02:41:55.104Z,100066.91
2022-09-13T02:44:54.030Z,100059.94
2022-09-13T02:47:54.322Z,100064.34
2022-09-13T02:50:58.297Z,100058.44
2022-09-13T02:53:53.498Z,100066.13
2022-09-13T02:56:43.751Z,100056.91
2022-09-13T02:59:16.561Z,100046.41
2022-09-13T03:01:52.674Z,100057.06
2022-09-13T03:04:19.633Z,100050.00
2022-09-13T03:06:46.608Z,100052.59
2022-09-13T03:09:14.049Z,100045.56
2022-09-13T03:11:55.699Z,100038.28
2022-09-13T03:15:01.018Z,100041.22
2022-09-13T03:18:22.576Z,100039.56
2022-09-13T03:21:08.115Z,100036.75
2022-09-13T03:24:15.755Z,100034.72
2022-09-13T03:27:15.551Z,100042.41
2022-09-13T03:30:13.325Z,100036.78
2022-09-13T03:33:20.435Z,100024.09
2022-09-13T03:35:57.723Z,100019.72
2022-09-13T03:38:46.171Z,100030.91
2022-09-13T03:41:20.311Z,100019.56
2022-09-13T03:43:59.780Z,100021.47
2022-09-13T03:46:35.895Z,100022.34
2022-09-13T03:49:09.071Z,100020.16
2022-09-13T03:51:37.058Z,100017.72
2022-09-13T03:54:09.795Z,100010.09
2022-09-13T03:56:36.786Z,100014.50
2022-09-13T03:59:03.771Z,100017.28
2022-09-13T04:01:31.229Z,100011.16
2022-09-13T04:03:59.201Z,100010.00
2022-09-13T04:06:26.129Z,100006.78
2022-09-13T04:08:53.049Z,100010.09
2022-09-13T04:11:21.577Z,99998.03
2022-09-13T04:13:48.698Z,99999.44
2022-09-13T04:16:15.773Z,100011.06
2022-09-13T04:18:42.705Z,100002.81
2022-09-13T04:21:09.825Z,100009.44
2022-09-13T04:23:36.777Z,100016.25
2022-09-13T04:26:06.374Z,100013.25
2022-09-13T04:28:33.333Z,100008.22
2022-09-13T04:31:00.286Z,100015.63
2022-09-13T04:33:27.183Z,100011.84
2022-09-13T04:36:00.689Z,100016.63
2022-09-13T04:38:28.019Z,100021.41
2022-09-13T04:40:56.056Z,100022.44
2022-09-13T04:43:24.451Z,100022.72
2022-09-13T04:45:51.920Z,100024.47
2022-09-13T04:48:19.005Z,100022.28
2022-09-13T04:50:46.004Z,100021.81
2022-09-13T04:53:13.240Z,100018.66
2022-09-13T04:55:40.205Z,100011.56
2022-09-13T04:58:07.112Z,100018.47
2022-09-13T05:00:34.509Z,100009.88
2022-09-13T05:03:01.715Z,99999.91
2022-09-13T05:05:29.383Z,100009.38
2022-09-13T05:07:56.373Z,100002.59
2022-09-13T05:10:23.832Z,99993.66
2022-09-13T05:12:50.810Z,99987.44
2022-09-13T05:15:17.912Z,99990.91
2022-09-13T05:17:44.921Z,99985.66
2022-09-13T05:20:11.901Z,99974.13
2022-09-13T05:22:38.807Z,99990.66
2022-09-13T05:25:06.697Z,99989.09
2022-09-13T05:27:33.823Z,99980.00
2022-09-13T05:30:02.898Z,99995.50
2022-09-13T05:32:32.442Z,99988.28
2022-09-13T05:34:59.355Z,99992.50
2022-09-13T05:37:26.270Z,99989.72
2022-09-13T05:40:11.570Z,99984.38
2022-09-13T05:42:40.235Z,99981.31
2022-09-13T05:45:08.615Z,99988.88
2022-09-13T05:47:35.554Z,99979.97
2022-09-13T05:50:10.460Z,99973.28
2022-09-13T05:52:38.907Z,99971.47
2022-09-13T05:55:06.004Z,99965.50
2022-09-13T05:57:32.948Z,99962.75
2022-09-13T05:59:59.910Z,99962.63
2022-09-13T06:02:26.826Z,99948.03
2022-09-13T06:04:53.792Z,99956.47
2022-09-13T06:07:20.687Z,99948.47
2022-09-13T06:09:47.724Z,99946.69
2022-09-13T06:12:14.650Z,99948.63
2022-09-13T06:14:41.619Z,99941.66
2022-09-13T06:17:08.570Z,99940.88
2022-09-13T06:19:35.527Z,99945.22
2022-09-13T06:22:02.452Z,99945.06
2022-09-13T06:24:29.354Z,99943.53
2022-09-13T06:26:56.310Z,99946.28
2022-09-13T06:29:23.222Z,99943.44
2022-09-13T06:31:50.311Z,99951.22
2022-09-13T06:34:17.577Z,99952.94
2022-09-13T06:36:45.615Z,99956.19
2022-09-13T06:39:12.543Z,99940.44
2022-09-13T06:41:39.703Z,99946.66
2022-09-13T06:44:07.056Z,99944.91
2022-09-13T06:46:35.829Z,99939.94
2022-09-13T06:49:06.695Z,99929.47
2022-09-13T06:51:35.336Z,99946.03
2022-09-13T06:54:04.047Z,99939.94
2022-09-13T06:56:34.790Z,99937.69
2022-09-13T06:59:05.127Z,99946.41
2022-09-13T07:01:35.896Z,99935.06
2022-09-13T07:04:25.942Z,99938.41
2022-09-13T07:06:52.944Z,99936.63
2022-09-13T07:09:22.139Z,99935.91
2022-09-13T07:11:55.466Z,99928.75
2022-09-13T07:14:28.776Z,99930.44
2022-09-13T07:16:56.076Z,99930.31
2022-09-13T07:19:28.482Z,99930.31
2022-09-13T07:21:56.905Z,99934.22
2022-09-13T07:24:24.700Z,99927.63
2022-09-13T07:26:51.991Z,99931.19
2022-09-13T07:29:25.383Z,99922.91
2022-09-13T07:31:54.800Z,99919.22
2022-09-13T07:34:24.117Z,99922.94
2022-09-13T07:36:52.510Z,99928.72
2022-09-13T07:39:22.745Z,99917.66
2022-09-13T07:41:51.782Z,99924.47
2022-09-13T07:44:18.900Z,99925.94
2022-09-13T07:46:45.950Z,99926.56
2022-09-13T07:49:16.560Z,99919.03
2022-09-13T07:51:44.402Z,99921.50
2022-09-13T07:54:17.878Z,99914.13
2022-09-13T07:56:45.791Z,99921.47
2022-09-13T07:59:15.686Z,99920.66
2022-09-13T08:01:46.473Z,99921.44
2022-09-13T08:04:18.013Z,99924.81
2022-09-13T08:06:46.532Z,99918.25
2022-09-13T08:09:14.678Z,99920.97
2022-09-13T08:11:55.170Z,99921.44
2022-09-13T08:14:23.403Z,99922.16
2022-09-13T08:16:50.735Z,99911.09
2022-09-13T08:19:18.757Z,99908.19
2022-09-13T08:21:47.063Z,99909.63
2022-09-13T08:24:18.550Z,99906.00
2022-09-13T08:26:45.741Z,99910.44
2022-09-13T08:29:14.353Z,99907.44
2022-09-13T08:31:42.287Z,99910.41
2022-09-13T08:34:15.241Z,99899.81
2022-09-13T08:36:43.199Z,99906.09
2022-09-13T08:39:13.569Z,99905.44
2022-09-13T08:41:40.852Z,99901.84
2022-09-13T08:44:28.376Z,99893.34
2022-09-13T08:47:35.084Z,99899.03
2022-09-13T08:50:19.879Z,99903.06
2022-09-13T08:53:17.520Z,99904.09
2022-09-13T08:56:10.574Z,99890.66
2022-09-13T08:58:56.136Z,99892.59
2022-09-13T09:01:53.369Z,99892.94
2022-09-13T09:04:48.557Z,99894.81
2022-09-13T09:07:20.296Z,99889.94
2022-09-13T09:10:08.349Z,99881.41
2022-09-13T09:12:48.032Z,99886.19
2022-09-13T09:15:22.705Z,99884.66
2022-09-13T09:18:07.758Z,99884.25
2022-09-13T09:20:46.186Z,99878.91
2022-09-13T09:23:30.528Z,99871.88
2022-09-13T09:26:16.183Z,99864.28
2022-09-13T09:28:55.782Z,99860.38
2022-09-13T09:32:03.388Z,99855.31
2022-09-13T09:35:04.322Z,99860.38
2022-09-13T09:37:32.114Z,99868.66
2022-09-13T09:40:08.977Z,99855.03
2022-09-13T09:42:49.211Z,99857.53
2022-09-13T09:45:33.491Z,99855.97
2022-09-13T09:48:09.427Z,99858.19
2022-09-13T09:50:44.284Z,99847.91
2022-09-13T09:53:37.204Z,99839.94
2022-09-13T09:56:32.604Z,99842.53
2022-09-13T09:59:00.001Z,99843.84
2022-09-13T10:01:31.012Z,99841.28
2022-09-13T10:04:12.350Z,99836.66
2022-09-13T10:06:42.025Z,99833.00
2022-09-13T10:09:20.599Z,99830.16
2022-09-13T10:11:56.356Z,99822.78
2022-09-13T10:14:38.405Z,99824.69
2022-09-13T10:17:06.459Z,99818.22
2022-09-13T10:19:33.771Z,99822.31
2022-09-13T10:22:05.757Z,99820.19
2022-09-13T10:24:33.473Z,99818.22
2022-09-13T10:27:00.770Z,99820.25
2022-09-13T10:29:29.113Z,99819.19
2022-09-13T10:32:01.289Z,99815.19
2022-09-13T10:34:33.617Z,99811.97
2022-09-13T10:37:33.695Z,99799.81
2022-09-13T10:40:13.197Z,99809.91
2022-09-13T10:42:40.903Z,99795.34
2022-09-13T10:45:19.481Z,99790.81
2022-09-13T10:47:51.422Z,99779.47
2022-09-13T10:50:28.594Z,99790.69
2022-09-13T10:52:57.084Z,99787.13
2022-09-13T10:55:27.249Z,99789.09
2022-09-13T10:58:03.265Z,99790.75
2022-09-13T11:01:00.553Z,99778.72
2022-09-13T11:03:52.971Z,99784.38
2022-09-13T11:06:41.099Z,99794.16
2022-09-13T11:09:29.687Z,99781.91
2022-09-13T11:12:31.433Z,99773.38
2022-09-13T11:15:41.309Z,99766.34
2022-09-13T11:18:40.345Z,99765.03
2022-09-13T11:21:38.265Z,99762.97
2022-09-13T11:24:23.056Z,99756.84
2022-09-13T11:27:36.463Z,99761.50
2022-09-13T11:30:25.318Z,99762.97
2022-09-13T11:33:25.326Z,99758.53
2022-09-13T11:36:17.877Z,99755.03
2022-09-13T11:39:05.821Z,99748.25
2022-09-13T11:42:04.684Z,99747.06
2022-09-13T11:45:21.650Z,99753.00
2022-09-13T11:48:22.326Z,99746.31
2022-09-13T11:51:26.537Z,99727.38
2022-09-13T11:54:12.182Z,99729.66
2022-09-13T11:56:44.057Z,99716.34
2022-09-13T12:00:00.487Z,99711.78
2022-09-13T12:03:01.891Z,99711.31
2022-09-13T12:05:39.907Z,99697.66
2022-09-13T12:08:19.282Z,99687.13
2022-09-13T12:11:11.805Z,99689.66
2022-09-13T12:14:01.339Z,99676.59
2022-09-13T12:17:12.489Z,99679.69
2022-09-13T12:19:50.238Z,99676.22
2022-09-13T12:22:19.880Z,99663.66
2022-09-13T12:24:58.606Z,99663.06
2022-09-13T12:27:39.985Z,99655.34
2022-09-13T12:30:18.331Z,99658.72
2022-09-13T12:32:47.980Z,99655.69
2022-09-13T12:35:29.263Z,99651.16
2022-09-13T12:38:20.664Z,99652.88
2022-09-13T12:41:16.709Z,99666.84
2022-09-13T12:44:02.268Z,99658.63
2022-09-13T12:47:03.613Z,99660.97
2022-09-13T12:50:36.759Z,99653.50
2022-09-13T12:53:27.246Z,99647.84
2022-09-13T12:56:25.654Z,99649.69
2022-09-13T12:59:14.653Z,99652.38
2022-09-13T13:01:48.652Z,99638.31
2022-09-13T13:04:20.407Z,99639.91
2022-09-13T13:06:55.989Z,99631.25
2022-09-13T13:09:53.764Z,99628.50
2022-09-13T13:12:39.459Z,99623.63
2022-09-13T13:15:15.725Z,99616.31
2022-09-13T13:17:51.070Z,99614.56
2022-09-13T13:20:48.365Z,99614.84
2022-09-13T13:23:18.534Z,99609.78
2022-09-13T13:26:10.123Z,99599.97
2022-09-13T13:28:47.232Z,99600.16
2022-09-13T13:31:32.261Z,99605.69
2022-09-13T13:34:06.639Z,99601.41
2022-09-13T13:36:44.023Z,99602.84
2022-09-13T13:39:14.170Z,99586.50
2022-09-13T13:41:53.676Z,99605.22
2022-09-13T13:44:20.550Z,99591.72
2022-09-13T13:46:53.674Z,99601.13
2022-09-13T13:49:35.473Z,99593.16
2022-09-13T13:52:11.568Z,99596.72
2022-09-13T13:54:59.444Z,99589.19
2022-09-13T13:57:41.657Z,99595.00
2022-09-13T14:00:19.715Z,99590.09
2022-09-13T14:02:49.321Z,99597.19
2022-09-13T14:06:12.843Z,99586.44
2022-09-13T14:12:07.937Z,99577.91
2022-09-13T14:15:21.967Z,99578.19
2022-09-13T14:18:32.660Z,99568.88
2022-09-13T14:21:18.351Z,99566.13
2022-09-13T14:23:45.306Z,99550.16
2022-09-13T14:26:12.794Z,99560.06
2022-09-13T14:28:40.418Z,99555.97
2022-09-13T14:31:08.281Z,99548.16
2022-09-13T14:33:37.730Z,99545.41
2022-09-13T14:36:19.155Z,99537.19
2022-09-13T14:38:58.802Z,99538.25
2022-09-13T14:41:38.894Z,99531.13
2022-09-13T14:44:23.656Z,99528.03
2022-09-13T14:47:12.131Z,99529.19
2022-09-13T14:49:52.009Z,99522.81
2022-09-13T14:52:36.440Z,99520.72
2022-09-13T14:55:12.978Z,99512.28
2022-09-13T14:57:50.092Z,99518.38
2022-09-13T15:00:24.399Z,99516.44
2022-09-13T15:03:03.370Z,99510.97
2022-09-13T15:05:34.069Z,99501.19
2022-09-13T15:08:24.888Z,99509.28
2022-09-13T15:10:52.550Z,99510.28
2022-09-13T15:13:19.466Z,99505.97
2022-09-13T15:15:46.729Z,99508.75
2022-09-13T15:18:25.620Z,99500.63
2022-09-13T15:21:07.466Z,99495.50
2022-09-13T15:23:43.326Z,99490.31
2022-09-13T15:26:25.986Z,99487.75
2022-09-13T15:28:57.270Z,99490.81
2022-09-13T15:31:28.694Z,99494.81
2022-09-13T15:34:16.958Z,99491.56
2022-09-13T15:36:49.314Z,99488.88
2022-09-13T15:39:21.474Z,99496.09
2022-09-13T15:41:58.990Z,99493.47
2022-09-13T15:44:28.110Z,99487.22
2022-09-13T15:47:02.364Z,99484.38
2022-09-13T15:49:30.161Z,99488.88
2022-09-13T15:52:02.745Z,99492.47
2022-09-13T15:54:42.228Z,99483.44
2022-09-13T15:57:29.588Z,99480.25
2022-09-13T16:00:01.491Z,99482.16
2022-09-13T16:02:35.718Z,99476.91
2022-09-13T16:05:02.682Z,99474.97
2022-09-13T16:07:29.616Z,99468.13
2022-09-13T16:09:56.555Z,99469.88
2022-09-13T16:12:24.339Z,99464.59
2022-09-13T16:14:51.310Z,99455.72
2022-09-13T16:17:25.469Z,99452.13
2022-09-13T16:19:53.906Z,99453.19
2022-09-13T16:22:23.109Z,99446.31
2022-09-13T16:24:50.296Z,99440.13
2022-09-13T16:27:18.897Z,99441.00
2022-09-13T16:29:46.526Z,99443.91
2022-09-13T16:32:13.551Z,99431.59
2022-09-13T16:34:40.750Z,99443.19
2022-09-13T16:37:07.814Z,99435.97
2022-09-13T16:39:34.830Z,99428.88
2022-09-13T16:42:01.808Z,99447.63
2022-09-13T16:44:28.819Z,99438.81
2022-09-13T16:46:56.029Z,99438.69
2022-09-13T16:49:23.339Z,99441.31
2022-09-13T16:51:50.339Z,99430.50
2022-09-13T16:54:17.293Z,99428.09
2022-09-13T16:56:44.417Z,99437.78
2022-09-13T16:59:11.795Z,99439.69
2022-09-13T17:01:39.144Z,99437.00
2022-09-13T17:04:06.398Z,99430.84
2022-09-13T17:06:33.314Z,99425.56
2022-09-13T17:09:03.797Z,99425.47
2022-09-13T17:11:35.881Z,99430.03
2022-09-13T17:14:06.777Z,99424.13
2022-09-13T17:16:42.746Z,99427.63
2022-09-13T17:19:21.212Z,99424.03
2022-09-13T17:21:49.269Z,99426.72
2022-09-13T17:24:16.645Z,99422.34
2022-09-13T17:26:45.387Z,99426.72
2022-09-13T17:29:13.367Z,99424.97
2022-09-13T17:31:43.381Z,99415.25
2022-09-13T17:34:12.226Z,99417.00
2022-09-13T17:36:43.635Z,99416.09
2022-09-13T17:39:11.792Z,99414.31
2022-09-13T17:41:39.659Z,99426.59
2022-09-13T17:44:07.308Z,99413.41
2022-09-13T17:46:34.421Z,99416.91
2022-09-13T17:49:02.072Z,99414.28
2022-09-13T17:51:31.735Z,99414.38
2022-09-13T17:54:02.751Z,99412.34
2022-09-13T17:56:42.563Z,99401.88
2022-09-13T17:59:18.008Z,99411.84
2022-09-13T18:01:49.498Z,99414.53
2022-09-13T18:04:19.174Z,99411.78
2022-09-13T18:06:46.872Z,99416.34
2022-09-13T18:09:16.420Z,99417.16
2022-09-13T18:11:43.538Z,99416.47
2022-09-13T18:14:16.670Z,99415.63
2022-09-13T18:16:45.345Z,99412.19
2022-09-13T18:19:13.143Z,99414.78
2022-09-13T18:21:41.020Z,99407.44
2022-09-13T18:24:08.493Z,99401.31
2022-09-13T18:26:36.905Z,99398.69
2022-09-13T18:29:13.687Z,99399.66
2022-09-13T18:31:42.730Z,99388.91
2022-09-13T18:34:14.624Z,99399.59
2022-09-13T18:36:42.798Z,99392.81
2022-09-13T18:39:23.241Z,99384.66
2022-09-13T18:41:51.732Z,99382.72
2022-09-13T18:44:19.279Z,99381.00
2022-09-13T18:46:47.473Z,99369.56
2022-09-13T18:49:15.230Z,99374.13
2022-09-13T18:51:44.969Z,99370.50
2022-09-13T18:54:18.603Z,99373.19
2022-09-13T18:56:48.216Z,99371.06
2022-09-13T18:59:15.506Z,99359.78
2022-09-13T19:01:44.855Z,99358.88
2022-09-13T19:04:19.019Z,99352.78
2022-09-13T19:07:02.201Z,99348.19
2022-09-13T19:09:30.409Z,99360.78
2022-09-13T19:11:59.505Z,99352.81
2022-09-13T19:14:28.643Z,99357.28
2022-09-13T19:17:05.229Z,99353.78
2022-09-13T19:19:33.904Z,99348.41
2022-09-13T19:22:00.895Z,99343.03
2022-09-13T19:24:29.437Z,99347.56
2022-09-13T19:26:56.706Z,99343.06
2022-09-13T19:29:25.352Z,99350.19
2022-09-13T19:31:54.158Z,99343.16
2022-09-13T19:34:24.233Z,99348.34
2022-09-13T19:36:58.301Z,99341.22
2022-09-13T19:39:30.034Z,99342.88
2022-09-13T19:42:00.514Z,99332.16
2022-09-13T19:44:28.784Z,99334.00
2022-09-13T19:47:42.805Z,99326.88
2022-09-13T19:49:44.854Z,99330.53
2022-09-13T19:52:12.313Z,99330.53
2022-09-13T19:54:41.768Z,99325.19
2022-09-13T19:57:10.373Z,99317.09
2022-09-13T19:59:37.895Z,99311.84
2022-09-13T20:02:05.411Z,99315.50
2022-09-13T20:04:32.696Z,99307.56
2022-09-13T20:07:00.298Z,99306.69
2022-09-13T20:09:27.665Z,99310.22
2022-09-13T20:12:00.992Z,99312.91
2022-09-13T20:14:29.200Z,99307.38
2022-09-13T20:16:56.334Z,99300.50
2022-09-13T20:19:40.597Z,99302.34
2022-09-13T20:22:10.493Z,99297.03
2022-09-13T20:24:40.025Z,99294.38
2022-09-13T20:27:07.830Z,99293.50
2022-09-13T20:29:35.705Z,99293.44
2022-09-13T20:32:03.802Z,99290.59
2022-09-13T20:34:31.858Z,99284.50
2022-09-13T20:36:59.166Z,99278.34
2022-09-13T20:39:26.660Z,99281.97
2022-09-13T20:41:54.697Z,99276.41
2022-09-13T20:44:22.169Z,99283.78
2022-09-13T20:46:49.978Z,99276.50
2022-09-13T20:49:17.853Z,99274.91
2022-09-13T20:51:46.662Z,99274.88
2022-09-13T20:54:13.619Z,99278.44
2022-09-13T20:56:40.575Z,99273.16
2022-09-13T20:59:07.641Z,99272.00
2022-09-13T21:01:35.198Z,99264.06
2022-09-13T21:04:03.609Z,99259.75
2022-09-13T21:06:36.404Z,99264.22
2022-09-13T21:09:03.561Z,99257.97
2022-09-13T21:11:36.588Z,99263.19
2022-09-13T21:14:06.815Z,99266.03
2022-09-13T21:16:39.344Z,99261.53
2022-09-13T21:19:07.454Z,99263.41
2022-09-13T21:21:38.209Z,99261.50
2022-09-13T21:24:09.794Z,99265.28
2022-09-13T21:26:42.183Z,99263.47
2022-09-13T21:29:10.546Z,99265.34
2022-09-13T21:31:38.630Z,99254.72
2022-09-13T21:34:11.797Z,99249.38
2022-09-13T21:36:39.305Z,99259.09
2022-09-13T21:39:06.507Z,99255.56
2022-09-13T21:41:34.657Z,99247.59
2022-09-13T21:44:01.856Z,99254.75
2022-09-13T21:46:35.906Z,99252.13
2022-09-13T21:49:07.220Z,99254.81
2022-09-13T21:51:47.113Z,99255.78
2022-09-13T21:54:17.610Z,99247.00
2022-09-13T21:56:52.253Z,99248.66
2022-09-13T21:59:21.371Z,99248.75
2022-09-13T22:01:51.467Z,99238.09
2022-09-13T22:04:22.467Z,99244.38
2022-09-13T22:06:52.231Z,99244.47
2022-09-13T22:09:22.279Z,99239.88
2022-09-13T22:11:49.685Z,99234.69
2022-09-13T22:14:19.937Z,99229.31
2022-09-13T22:16:47.000Z,99225.75
2022-09-13T22:19:26.038Z,99223.97
2022-09-13T22:21:59.657Z,99225.72
2022-09-13T22:24:32.133Z,99217.75
2022-09-13T22:26:59.609Z,99213.38
2022-09-13T22:29:27.423Z,99217.91
2022-09-13T22:31:54.915Z,99217.84
2022-09-13T22:34:25.024Z,99209.78
2022-09-13T22:36:55.246Z,99211.63
2022-09-13T22:39:22.417Z,99215.13
2022-09-13T22:41:49.324Z,99208.06
2022-09-13T22:44:16.339Z,99214.31
2022-09-13T22:46:45.764Z,99211.53
2022-09-13T22:49:16.676Z,99218.75
2022-09-13T22:51:47.797Z,99211.66
2022-09-13T22:54:17.081Z,99213.41
2022-09-13T22:56:44.730Z,99213.50
2022-09-13T22:59:21.146Z,99208.16
2022-09-13T23:01:49.110Z,99209.06
2022-09-13T23:04:16.571Z,99210.75
2022-09-13T23:06:44.418Z,99199.22
2022-09-13T23:09:16.847Z,99201.75
2022-09-13T23:11:44.496Z,99201.84
2022-09-13T23:14:14.767Z,99206.25
2022-09-13T23:16:50.149Z,99205.41
2022-09-13T23:19:20.121Z,99201.78
2022-09-13T23:21:47.145Z,99207.22
2022-09-13T23:24:17.611Z,99201.13
2022-09-13T23:26:45.647Z,99199.41
2022-09-13T23:29:17.312Z,99202.91
2022-09-13T23:31:46.859Z,99204.72
2022-09-13T23:34:15.139Z,99209.22
2022-09-13T23:36:44.435Z,99203.78
2022-09-13T23:39:18.312Z,99208.28
2022-09-13T23:41:47.719Z,99203.13
2022-09-13T23:44:15.365Z,99201.38
2022-09-13T23:46:42.524Z,99202.28
2022-09-13T23:49:09.428Z,99201.38
2022-09-13T23:51:36.596Z,99207.56
2022-09-13T23:54:03.957Z,99210.25
2022-09-13T23:56:32.523Z,99202.38
2022-09-13T23:59:02.247Z,99202.28
